Terminal Aerodrome Forecast
Issued by NWS Twin Cities, MN

Home | Current Version | Previous Version | Text Only | Print | Product List | Glossary On
Versions: 1 2 3 4 5 6 7 8 9 10 11 12 13 14 15 16 17 18 19 20 21 22 23 24 25 26 27 28 29 30 31 32 33 34 35 36
000
FTUS43 KMPX 241200 AAA
TAFMSP
TAF AMD
KMSP 241202Z 2412/2518 31022G30KT P6SM OVC013
      TEMPO 2412/2415 4SM -FZDZ BR OVC010
     FM241500 31022G30KT P6SM OVC013
      TEMPO 2415/2418 4SM -SHSN OVC010
     FM242100 31020G30KT P6SM OVC018
     FM250500 31014KT P6SM SCT020
     FM251200 28005KT P6SM SCT100=

USA.gov is the U.S. government's official web portal to all federal, state and local government web resources and services.